createdAt,value
2023-06-24T00:02:39.283Z,23.24
2023-06-24T00:05:24.496Z,23.26
2023-06-24T00:08:10.422Z,23.27
2023-06-24T00:10:56.825Z,23.27
2023-06-24T00:13:43.560Z,23.32
2023-06-24T00:16:29.532Z,23.14
2023-06-24T00:19:14.862Z,23.17
2023-06-24T00:22:00.583Z,23.10
2023-06-24T00:24:45.806Z,23.04
2023-06-24T00:27:31.289Z,22.98
2023-06-24T00:30:16.487Z,23.04
2023-06-24T00:32:45.341Z,22.98
2023-06-24T00:35:12.766Z,23.00
2023-06-24T00:37:40.029Z,22.96
2023-06-24T00:40:08.188Z,22.88
2023-06-24T00:42:35.843Z,22.84
2023-06-24T00:45:03.205Z,22.94
2023-06-24T00:47:31.701Z,22.95
2023-06-24T00:49:59.688Z,23.01
2023-06-24T00:52:27.033Z,23.10
2023-06-24T00:54:54.430Z,23.04
2023-06-24T00:57:22.598Z,23.02
2023-06-24T00:59:50.079Z,22.94
2023-06-24T01:02:17.544Z,22.89
2023-06-24T01:04:45.621Z,22.91
2023-06-24T01:07:13.129Z,22.80
2023-06-24T01:09:40.450Z,22.72
2023-06-24T01:12:08.262Z,22.63
2023-06-24T01:14:37.014Z,22.66
2023-06-24T01:17:10.650Z,22.68
2023-06-24T01:20:04.909Z,22.54
2023-06-24T01:22:43.663Z,22.62
2023-06-24T01:25:40.386Z,22.60
2023-06-24T01:28:07.551Z,22.52
2023-06-24T01:30:53.567Z,22.51
2023-06-24T01:33:33.677Z,22.50
2023-06-24T01:36:02.799Z,22.59
2023-06-24T01:38:37.754Z,22.61
2023-06-24T01:41:07.302Z,22.62
2023-06-24T01:43:36.537Z,22.55
2023-06-24T01:46:06.211Z,22.53
2023-06-24T01:48:36.990Z,22.48
2023-06-24T01:51:03.956Z,22.43
2023-06-24T01:53:39.591Z,22.51
2023-06-24T01:56:09.331Z,22.64
2023-06-24T01:58:37.025Z,22.57
2023-06-24T02:01:05.439Z,22.67
2023-06-24T02:03:34.807Z,22.62
2023-06-24T02:06:03.369Z,22.61
2023-06-24T02:08:34.515Z,22.62
2023-06-24T02:11:03.174Z,22.57
2023-06-24T02:13:33.212Z,22.58
2023-06-24T02:16:02.352Z,22.57
2023-06-24T02:18:29.724Z,22.40
2023-06-24T02:20:58.094Z,22.37
2023-06-24T02:23:26.408Z,22.29
2023-06-24T02:25:53.945Z,22.25
2023-06-24T02:28:21.612Z,22.25
2023-06-24T02:30:50.258Z,22.27
2023-06-24T02:33:17.555Z,22.22
2023-06-24T02:35:44.894Z,22.21
2023-06-24T02:38:12.202Z,22.15
2023-06-24T02:40:39.776Z,22.11
2023-06-24T02:43:07.008Z,22.12
2023-06-24T02:45:34.552Z,22.17
2023-06-24T02:48:03.020Z,22.20
2023-06-24T02:50:31.319Z,22.09
2023-06-24T02:52:58.876Z,22.03
2023-06-24T02:55:27.849Z,22.04
2023-06-24T02:57:56.213Z,22.13
2023-06-24T03:00:23.996Z,22.11
2023-06-24T03:02:51.668Z,22.12
2023-06-24T03:05:19.340Z,22.12
2023-06-24T03:07:48.132Z,22.15
2023-06-24T03:10:15.306Z,22.14
2023-06-24T03:12:42.929Z,22.09
2023-06-24T03:15:10.362Z,22.17
2023-06-24T03:17:38.288Z,22.11
2023-06-24T03:20:06.657Z,22.02
2023-06-24T03:22:34.077Z,22.62
2023-06-24T03:25:01.340Z,22.77
2023-06-24T03:27:28.653Z,22.96
2023-06-24T03:29:56.323Z,23.12
2023-06-24T03:32:23.604Z,23.29
2023-06-24T03:34:50.961Z,23.43
2023-06-24T03:37:18.503Z,23.37
2023-06-24T03:39:45.890Z,23.19
2023-06-24T03:42:13.276Z,23.04
2023-06-24T03:44:41.376Z,23.22
2023-06-24T03:47:08.979Z,23.40
2023-06-24T03:49:36.186Z,23.30
2023-06-24T03:52:03.665Z,23.30
2023-06-24T03:54:30.776Z,23.34
2023-06-24T03:56:58.043Z,23.51
2023-06-24T03:59:25.274Z,23.44
2023-06-24T04:01:52.670Z,23.23
2023-06-24T04:04:19.942Z,23.46
2023-06-24T04:06:48.926Z,23.32
2023-06-24T04:09:16.121Z,23.56
2023-06-24T04:11:43.629Z,23.98
2023-06-24T04:14:10.761Z,24.10
2023-06-24T04:16:37.960Z,24.18
2023-06-24T04:19:05.527Z,23.89
2023-06-24T04:21:32.725Z,23.50
2023-06-24T04:23:59.974Z,23.49
2023-06-24T04:26:27.519Z,23.55
2023-06-24T04:28:54.778Z,23.32
2023-06-24T04:31:21.993Z,23.23
2023-06-24T04:36:36.721Z,23.24
2023-06-24T04:39:04.465Z,23.48
2023-06-24T04:41:35.326Z,23.52
2023-06-24T04:44:02.633Z,23.73
2023-06-24T04:46:30.055Z,23.79
2023-06-24T04:48:57.589Z,23.71
2023-06-24T04:51:24.933Z,23.97
2023-06-24T04:53:52.440Z,23.98
2023-06-24T04:56:23.306Z,23.98
2023-06-24T04:58:50.709Z,24.04
2023-06-24T05:01:19.557Z,24.16
2023-06-24T05:03:48.606Z,24.05
2023-06-24T05:06:16.200Z,24.08
2023-06-24T05:08:44.297Z,24.29
2023-06-24T05:11:12.513Z,24.20
2023-06-24T05:13:41.988Z,24.07
2023-06-24T05:16:15.647Z,24.37
2023-06-24T05:18:45.268Z,24.50
2023-06-24T05:21:14.665Z,24.52
2023-06-24T05:23:43.135Z,24.75
2023-06-24T05:26:10.892Z,24.54
2023-06-24T05:28:38.835Z,24.62
2023-06-24T05:31:07.318Z,24.49
2023-06-24T05:33:37.886Z,24.59
2023-06-24T05:36:05.775Z,24.52
2023-06-24T05:38:33.633Z,24.63
2023-06-24T05:41:01.613Z,24.67
2023-06-24T05:43:29.138Z,24.67
2023-06-24T05:45:56.557Z,24.86
2023-06-24T05:48:24.109Z,24.82
2023-06-24T05:50:52.559Z,24.89
2023-06-24T05:53:22.094Z,24.83
2023-06-24T05:55:49.597Z,24.93
2023-06-24T05:58:20.056Z,24.97
2023-06-24T06:00:47.540Z,25.04
2023-06-24T06:03:15.260Z,25.09
2023-06-24T06:05:42.568Z,25.21
2023-06-24T06:08:10.329Z,25.39
2023-06-24T06:10:38.301Z,25.67
2023-06-24T06:13:05.560Z,25.73
2023-06-24T06:15:32.904Z,25.70
2023-06-24T06:18:03.507Z,25.66
2023-06-24T06:20:30.698Z,25.91
2023-06-24T06:22:58.620Z,25.89
2023-06-24T06:25:26.178Z,26.02
2023-06-24T06:27:53.872Z,26.20
2023-06-24T06:30:22.132Z,26.34
2023-06-24T06:32:50.883Z,26.53
2023-06-24T06:35:18.152Z,26.77
2023-06-24T06:37:47.052Z,26.94
2023-06-24T06:40:14.708Z,26.95
2023-06-24T06:42:42.670Z,27.16
2023-06-24T06:45:11.012Z,27.35
2023-06-24T06:47:39.260Z,27.48
2023-06-24T06:50:07.721Z,27.57
2023-06-24T06:52:35.941Z,27.57
2023-06-24T06:55:03.723Z,27.57
2023-06-24T06:57:33.712Z,27.78
2023-06-24T07:00:02.679Z,27.82
2023-06-24T07:02:30.467Z,28.04
2023-06-24T07:04:58.501Z,28.19
2023-06-24T07:07:26.452Z,28.38
2023-06-24T07:09:55.053Z,28.59
2023-06-24T07:12:22.726Z,28.45
2023-06-24T07:14:51.728Z,28.58
2023-06-24T07:17:19.171Z,28.45
2023-06-24T07:19:46.934Z,28.74
2023-06-24T07:22:15.135Z,28.91
2023-06-24T07:24:42.992Z,28.97
2023-06-24T07:27:10.381Z,29.14
2023-06-24T07:29:38.100Z,29.29
2023-06-24T07:32:06.424Z,29.34
2023-06-24T07:34:34.669Z,29.40
2023-06-24T07:37:14.895Z,29.47
2023-06-24T07:39:49.793Z,29.28
2023-06-24T07:42:17.652Z,29.47
2023-06-24T07:44:48.982Z,29.47
2023-06-24T07:47:21.040Z,29.69
2023-06-24T07:50:18.235Z,29.81
2023-06-24T07:52:46.379Z,29.90
2023-06-24T07:55:17.605Z,29.74
2023-06-24T07:57:47.065Z,29.89
2023-06-24T08:00:16.189Z,29.87
2023-06-24T08:02:46.875Z,29.99
2023-06-24T08:05:14.744Z,30.15
2023-06-24T08:07:43.028Z,30.21
2023-06-24T08:10:13.621Z,30.27
2023-06-24T08:12:41.434Z,30.32
2023-06-24T08:15:09.661Z,30.43
2023-06-24T08:17:37.184Z,30.43
2023-06-24T08:20:04.981Z,30.50
2023-06-24T08:22:32.345Z,30.54
2023-06-24T08:24:59.986Z,30.71
2023-06-24T08:27:27.744Z,30.79
2023-06-24T08:29:55.097Z,30.87
2023-06-24T08:32:22.506Z,30.85
2023-06-24T08:34:49.969Z,30.99
2023-06-24T08:37:17.344Z,31.01
2023-06-24T08:39:45.168Z,30.97
2023-06-24T08:42:12.544Z,30.82
2023-06-24T08:44:41.060Z,30.97
2023-06-24T08:47:08.671Z,31.11
2023-06-24T08:49:45.460Z,31.17
2023-06-24T08:52:16.421Z,31.20
2023-06-24T08:54:49.109Z,31.17
2023-06-24T08:57:16.729Z,31.33
2023-06-24T08:59:44.285Z,31.36
2023-06-24T09:02:12.433Z,31.12
2023-06-24T09:04:40.947Z,31.30
2023-06-24T09:07:08.625Z,31.25
2023-06-24T09:09:44.501Z,31.48
2023-06-24T09:12:15.916Z,31.51
2023-06-24T09:14:49.405Z,31.59
2023-06-24T09:17:17.506Z,31.67
2023-06-24T09:19:45.006Z,31.74
2023-06-24T09:22:13.085Z,31.76
2023-06-24T09:24:40.575Z,31.39
2023-06-24T09:27:07.861Z,30.93
2023-06-24T09:29:36.889Z,30.55
2023-06-24T09:32:08.467Z,30.30
2023-06-24T09:34:36.274Z,30.23
2023-06-24T09:37:04.121Z,30.03
2023-06-24T09:39:41.752Z,30.01
2023-06-24T09:42:09.482Z,29.97
2023-06-24T09:44:37.334Z,29.95
2023-06-24T09:47:05.076Z,30.02
2023-06-24T09:49:33.053Z,30.26
2023-06-24T09:52:03.481Z,30.13
2023-06-24T09:54:35.326Z,30.21
2023-06-24T09:57:07.339Z,30.42
2023-06-24T09:59:35.932Z,30.32
2023-06-24T10:02:05.086Z,30.21
2023-06-24T10:04:47.823Z,30.03
2023-06-24T10:09:04.126Z,29.84
2023-06-24T10:10:37.101Z,29.67
2023-06-24T10:13:06.319Z,29.57
2023-06-24T10:15:39.164Z,29.59
2023-06-24T10:18:43.137Z,29.68
2023-06-24T10:21:21.669Z,30.04
2023-06-24T10:23:49.476Z,30.35
2023-06-24T10:26:22.912Z,30.58
2023-06-24T10:29:08.716Z,30.76
2023-06-24T10:31:42.750Z,30.76
2023-06-24T10:34:25.796Z,30.73
2023-06-24T10:37:02.176Z,30.89
2023-06-24T10:39:37.231Z,31.12
2023-06-24T10:42:48.874Z,31.35
2023-06-24T10:47:52.857Z,31.65
2023-06-24T10:50:22.113Z,31.68
2023-06-24T10:52:51.596Z,31.71
2023-06-24T10:55:20.453Z,31.62
2023-06-24T10:57:47.809Z,31.58
2023-06-24T11:00:16.528Z,31.34
2023-06-24T11:02:45.430Z,31.05
2023-06-24T11:05:12.960Z,30.74
2023-06-24T11:07:41.075Z,30.50
2023-06-24T11:10:13.584Z,30.25
2023-06-24T11:12:43.922Z,30.02
2023-06-24T11:15:13.931Z,29.82
2023-06-24T11:17:43.702Z,29.65
2023-06-24T11:20:15.455Z,29.57
2023-06-24T11:22:44.825Z,29.57
2023-06-24T11:25:18.909Z,29.63
2023-06-24T11:27:47.058Z,29.56
2023-06-24T11:30:14.995Z,29.51
2023-06-24T11:32:44.714Z,29.47
2023-06-24T11:35:13.869Z,29.44
2023-06-24T11:38:02.461Z,29.49
2023-06-24T11:40:32.285Z,29.67
2023-06-24T11:43:06.041Z,29.84
2023-06-24T11:45:40.475Z,30.00
2023-06-24T11:48:10.990Z,30.22
2023-06-24T11:50:38.607Z,30.37
2023-06-24T11:53:06.588Z,30.50
2023-06-24T11:55:37.203Z,30.55
2023-06-24T11:58:05.515Z,30.60
2023-06-24T12:00:41.385Z,30.34
2023-06-24T12:03:12.016Z,30.11
2023-06-24T12:05:43.141Z,29.96
2023-06-24T12:08:17.814Z,29.84
2023-06-24T12:10:46.658Z,29.77
2023-06-24T12:13:20.456Z,29.80
2023-06-24T12:15:48.669Z,29.83
2023-06-24T12:18:16.906Z,30.00
2023-06-24T12:20:44.881Z,30.07
2023-06-24T12:23:13.103Z,30.13
2023-06-24T12:25:40.517Z,30.28
2023-06-24T12:28:07.944Z,30.35
2023-06-24T12:30:35.615Z,30.40
2023-06-24T12:33:04.158Z,30.53
2023-06-24T12:35:31.856Z,30.57
2023-06-24T12:38:02.751Z,30.66
2023-06-24T12:40:33.325Z,30.80
2023-06-24T12:43:02.736Z,30.89
2023-06-24T12:45:31.578Z,30.95
2023-06-24T12:47:59.174Z,31.05
2023-06-24T12:50:26.966Z,31.10
2023-06-24T12:52:54.702Z,31.10
2023-06-24T12:55:24.742Z,31.07
2023-06-24T12:57:52.866Z,31.18
2023-06-24T13:00:21.869Z,31.17
2023-06-24T13:02:51.706Z,31.07
2023-06-24T13:05:33.925Z,31.07
2023-06-24T13:08:05.144Z,31.10
2023-06-24T13:10:33.583Z,31.01
2023-06-24T13:13:01.403Z,30.92
2023-06-24T13:15:30.775Z,30.84
2023-06-24T13:17:59.930Z,30.80
2023-06-24T13:20:28.527Z,30.73
2023-06-24T13:22:56.923Z,30.67
2023-06-24T13:25:24.911Z,30.60
2023-06-24T13:27:54.438Z,30.53
2023-06-24T13:30:22.983Z,30.47
2023-06-24T13:32:50.735Z,30.40
2023-06-24T13:35:18.367Z,30.36
2023-06-24T13:37:46.329Z,30.30
2023-06-24T13:40:13.822Z,30.26
2023-06-24T13:42:41.307Z,30.30
2023-06-24T13:45:10.328Z,30.29
2023-06-24T13:47:39.162Z,30.24
2023-06-24T13:50:07.184Z,30.18
2023-06-24T13:52:36.247Z,30.13
2023-06-24T13:55:06.192Z,30.11
2023-06-24T13:57:33.695Z,30.10
2023-06-24T14:00:01.802Z,30.14
2023-06-24T14:02:31.849Z,30.10
2023-06-24T14:04:59.322Z,30.09
2023-06-24T14:07:27.430Z,30.08
2023-06-24T14:09:55.152Z,30.11
2023-06-24T14:12:23.015Z,30.12
2023-06-24T14:14:50.406Z,30.11
2023-06-24T14:17:19.165Z,30.07
2023-06-24T14:19:47.992Z,30.08
2023-06-24T14:22:15.798Z,30.10
2023-06-24T14:24:43.211Z,30.10
2023-06-24T14:27:10.874Z,30.07
2023-06-24T14:29:38.524Z,30.10
2023-06-24T14:32:06.303Z,30.03
2023-06-24T14:34:33.901Z,30.01
2023-06-24T14:37:01.187Z,30.00
2023-06-24T14:39:30.700Z,29.99
2023-06-24T14:42:00.857Z,30.00
2023-06-24T14:44:31.983Z,30.00
2023-06-24T14:46:59.381Z,29.91
2023-06-24T14:49:27.320Z,29.85
2023-06-24T14:51:54.782Z,29.80
2023-06-24T14:54:23.662Z,29.83
2023-06-24T14:56:51.102Z,29.76
2023-06-24T14:59:18.704Z,29.76
2023-06-24T15:01:46.347Z,29.73
2023-06-24T15:04:13.921Z,29.70
2023-06-24T15:06:41.290Z,29.62
2023-06-24T15:09:09.380Z,29.59
2023-06-24T15:11:36.928Z,29.53
2023-06-24T15:14:04.292Z,29.49
2023-06-24T15:16:31.924Z,29.50
2023-06-24T15:18:59.245Z,29.51
2023-06-24T15:21:35.275Z,29.47
2023-06-24T15:24:04.899Z,29.43
2023-06-24T15:26:34.714Z,29.37
2023-06-24T15:29:03.585Z,29.38
2023-06-24T15:31:31.416Z,29.31
2023-06-24T15:33:58.851Z,29.13
2023-06-24T15:36:26.242Z,29.21
2023-06-24T15:38:54.780Z,29.19
2023-06-24T15:41:22.840Z,29.13
2023-06-24T15:43:50.322Z,29.05
2023-06-24T15:46:18.522Z,29.07
2023-06-24T15:48:46.138Z,29.09
2023-06-24T15:51:13.511Z,29.06
2023-06-24T15:53:41.034Z,29.13
2023-06-24T15:56:08.460Z,29.11
2023-06-24T15:58:35.927Z,29.10
2023-06-24T16:01:04.405Z,29.08
2023-06-24T16:03:32.070Z,29.10
2023-06-24T16:05:59.593Z,29.04
2023-06-24T16:08:26.955Z,29.04
2023-06-24T16:10:54.447Z,29.01
2023-06-24T16:13:22.138Z,28.95
2023-06-24T16:15:49.780Z,28.89
2023-06-24T16:18:17.260Z,28.86
2023-06-24T16:20:44.708Z,28.84
2023-06-24T16:23:13.775Z,28.83
2023-06-24T16:25:41.873Z,28.71
2023-06-24T16:28:09.722Z,28.56
2023-06-24T16:30:38.268Z,28.43
2023-06-24T16:33:06.266Z,28.22
2023-06-24T16:35:33.848Z,27.94
2023-06-24T16:38:01.595Z,27.79
2023-06-24T16:40:30.312Z,27.76
2023-06-24T16:42:58.306Z,27.71
2023-06-24T16:45:25.760Z,27.69
2023-06-24T16:47:53.763Z,27.64
2023-06-24T16:50:21.952Z,27.64
2023-06-24T16:52:49.595Z,27.57
2023-06-24T16:55:17.267Z,27.52
2023-06-24T16:57:44.990Z,27.45
2023-06-24T17:00:13.298Z,27.18
2023-06-24T17:02:41.010Z,26.90
2023-06-24T17:05:08.780Z,26.80
2023-06-24T17:07:36.434Z,26.57
2023-06-24T17:10:04.304Z,26.41
2023-06-24T17:12:32.121Z,26.22
2023-06-24T17:14:59.656Z,26.37
2023-06-24T17:17:30.399Z,26.08
2023-06-24T17:19:58.218Z,25.98
2023-06-24T17:22:26.099Z,25.83
2023-06-24T17:24:53.620Z,25.83
2023-06-24T17:27:21.268Z,25.86
2023-06-24T17:29:48.709Z,25.86
2023-06-24T17:32:16.526Z,25.87
2023-06-24T17:34:43.945Z,25.77
2023-06-24T17:37:11.361Z,25.82
2023-06-24T17:39:39.135Z,25.84
2023-06-24T17:42:06.734Z,25.90
2023-06-24T17:44:34.089Z,25.94
2023-06-24T17:47:01.911Z,25.94
2023-06-24T17:49:29.610Z,25.92
2023-06-24T17:51:56.966Z,25.82
2023-06-24T17:54:24.396Z,25.77
2023-06-24T17:56:52.236Z,25.74
2023-06-24T17:59:19.753Z,25.21
2023-06-24T18:01:47.320Z,25.27
2023-06-24T18:04:14.858Z,24.82
2023-06-24T18:06:43.379Z,25.07
2023-06-24T18:09:11.692Z,25.16
2023-06-24T18:11:40.695Z,25.29
2023-06-24T18:14:08.450Z,25.28
2023-06-24T18:16:41.557Z,25.46
2023-06-24T18:19:10.445Z,25.39
2023-06-24T18:21:38.448Z,25.38
2023-06-24T18:24:06.108Z,25.42
2023-06-24T18:26:34.089Z,25.04
2023-06-24T18:29:01.597Z,25.17
2023-06-24T18:31:29.388Z,24.97
2023-06-24T18:33:58.426Z,25.16
2023-06-24T18:36:25.995Z,24.98
2023-06-24T18:38:53.368Z,25.21
2023-06-24T18:41:20.810Z,25.25
2023-06-24T18:43:48.484Z,25.17
2023-06-24T18:46:18.184Z,25.24
2023-06-24T18:48:47.379Z,25.31
2023-06-24T18:51:16.421Z,25.19
2023-06-24T18:53:44.208Z,25.18
2023-06-24T18:56:11.677Z,25.13
2023-06-24T18:58:39.309Z,24.83
2023-06-24T19:01:07.052Z,24.67
2023-06-24T19:03:34.919Z,24.68
2023-06-24T19:06:02.497Z,24.56
2023-06-24T19:08:29.838Z,24.34
2023-06-24T19:10:57.364Z,24.27
2023-06-24T19:13:25.151Z,24.05
2023-06-24T19:15:52.653Z,23.91
2023-06-24T19:18:20.358Z,23.73
2023-06-24T19:20:47.816Z,23.75
2023-06-24T19:23:15.715Z,23.88
2023-06-24T19:25:43.236Z,23.69
2023-06-24T19:28:10.705Z,23.56
2023-06-24T19:30:38.619Z,23.55
2023-06-24T19:33:06.421Z,23.56
2023-06-24T19:35:33.843Z,23.44
2023-06-24T19:38:02.189Z,23.21
2023-06-24T19:40:29.569Z,23.35
2023-06-24T19:42:57.160Z,23.25
2023-06-24T19:45:25.136Z,23.30
2023-06-24T19:47:53.668Z,23.37
2023-06-24T19:50:21.450Z,23.31
2023-06-24T19:52:50.116Z,23.26
2023-06-24T19:55:17.356Z,23.23
2023-06-24T19:57:45.378Z,23.28
2023-06-24T20:00:14.150Z,23.24
2023-06-24T20:02:41.484Z,23.29
2023-06-24T20:05:09.208Z,23.29
2023-06-24T20:07:37.797Z,23.34
2023-06-24T20:10:05.948Z,23.26
2023-06-24T20:12:33.311Z,23.22
2023-06-24T20:15:00.602Z,23.18
2023-06-24T20:17:28.134Z,23.14
2023-06-24T20:19:56.147Z,23.09
2023-06-24T20:22:23.743Z,23.00
2023-06-24T20:25:09.219Z,22.92
2023-06-24T20:27:36.519Z,22.95
2023-06-24T20:30:04.254Z,23.01
2023-06-24T20:32:31.507Z,22.98
2023-06-24T20:35:00.428Z,22.94
2023-06-24T20:37:28.192Z,22.91
2023-06-24T20:39:55.961Z,22.93
2023-06-24T20:42:23.245Z,22.92
2023-06-24T20:44:50.577Z,22.84
2023-06-24T20:47:18.514Z,22.79
2023-06-24T20:49:46.664Z,22.82
2023-06-24T20:52:14.745Z,22.75
2023-06-24T20:54:42.227Z,22.73
2023-06-24T20:57:09.587Z,22.66
2023-06-24T20:59:37.313Z,22.72
2023-06-24T21:02:04.919Z,22.72
2023-06-24T21:04:32.272Z,22.80
2023-06-24T21:06:59.843Z,22.77
2023-06-24T21:09:27.296Z,22.83
2023-06-24T21:11:54.509Z,22.81
2023-06-24T21:14:21.647Z,22.89
2023-06-24T21:16:48.936Z,22.98
2023-06-24T21:19:16.117Z,22.76
2023-06-24T21:21:43.440Z,22.67
2023-06-24T21:24:10.583Z,22.69
2023-06-24T21:26:38.057Z,22.73
2023-06-24T21:29:05.503Z,22.68
2023-06-24T21:31:32.745Z,22.62
2023-06-24T21:34:00.002Z,22.76
2023-06-24T21:36:27.367Z,22.73
2023-06-24T21:38:54.816Z,22.65
2023-06-24T21:41:22.125Z,22.50
2023-06-24T21:43:49.583Z,22.60
2023-06-24T21:46:16.887Z,22.75
2023-06-24T21:48:44.216Z,22.89
2023-06-24T21:51:11.472Z,22.76
2023-06-24T21:53:38.759Z,22.76
2023-06-24T21:56:06.152Z,22.88
2023-06-24T21:58:33.320Z,23.13
2023-06-24T22:01:00.678Z,22.83
2023-06-24T22:03:28.072Z,22.75
2023-06-24T22:05:55.287Z,22.99
2023-06-24T22:08:22.521Z,22.89
2023-06-24T22:10:49.807Z,22.97
2023-06-24T22:13:17.194Z,22.75
2023-06-24T22:15:44.643Z,22.61
2023-06-24T22:18:12.357Z,22.56
2023-06-24T22:20:39.664Z,22.60
2023-06-24T22:23:06.870Z,22.49
2023-06-24T22:25:34.127Z,22.49
2023-06-24T22:28:01.235Z,22.46
2023-06-24T22:30:28.785Z,22.45
2023-06-24T22:32:55.940Z,22.38
2023-06-24T22:35:23.758Z,22.41
2023-06-24T22:37:52.714Z,22.47
2023-06-24T22:40:20.741Z,22.44
2023-06-24T22:42:47.959Z,22.54
2023-06-24T22:45:15.553Z,22.46
2023-06-24T22:47:43.720Z,22.49
2023-06-24T22:50:11.341Z,22.38
2023-06-24T22:52:38.999Z,22.40
2023-06-24T22:55:06.905Z,22.40
2023-06-24T22:57:34.460Z,22.34
2023-06-24T23:00:02.021Z,22.39
2023-06-24T23:02:29.588Z,22.34
2023-06-24T23:04:57.244Z,22.41
2023-06-24T23:07:24.724Z,22.42
2023-06-24T23:09:53.368Z,22.45
2023-06-24T23:12:22.992Z,22.46
2023-06-24T23:14:50.657Z,22.47
2023-06-24T23:17:18.477Z,22.50
2023-06-24T23:19:46.501Z,22.46
2023-06-24T23:22:19.129Z,22.46
2023-06-24T23:24:46.908Z,22.51
2023-06-24T23:27:16.107Z,22.46
2023-06-24T23:29:46.116Z,22.46
2023-06-24T23:32:14.826Z,22.41
2023-06-24T23:34:42.229Z,22.44
2023-06-24T23:37:10.386Z,22.50
2023-06-24T23:39:38.065Z,22.49
2023-06-24T23:42:05.824Z,22.53
2023-06-24T23:44:33.415Z,22.55
2023-06-24T23:47:00.780Z,22.57
2023-06-24T23:49:28.075Z,22.57
2023-06-24T23:51:55.268Z,22.66
2023-06-24T23:54:23.001Z,22.55
2023-06-24T23:56:50.228Z,22.70
2023-06-24T23:59:17.466Z,22.63
